Time;durP1;ratioP1;P1;durP2;ratioP2;P2;SDS_P1;SDS_P2;PMS_P1;PMS_P2;Temp;Humidity;BMP_temperature;BMP_pressure;BME280_temperature;BME280_humidity;BME280_pressure;Samples;Min_cycle;Max_cycle;Signal;HPM_P1;HPM_P2
2022/04/02 00:01:08;;;;;;;6.97;5.18;;;22.40;56.10;;;;;;5076522;28;20052;-70
2022/04/02 00:03:34;;;;;;;9.25;5.10;;;22.40;56.10;;;;;;5076490;28;20033;-70
2022/04/02 00:06:02;;;;;;;9.07;5.80;;;22.40;56.10;;;;;;5076419;28;20043;-70
2022/04/02 00:08:28;;;;;;;10.52;6.38;;;22.40;56.10;;;;;;5076376;28;20104;-70
2022/04/02 00:10:53;;;;;;;10.70;6.25;;;22.40;56.00;;;;;;5076676;28;20079;-70
2022/04/02 00:13:20;;;;;;;10.50;6.22;;;22.40;56.20;;;;;;5076313;28;20060;-70
2022/04/02 00:15:46;;;;;;;12.27;6.25;;;22.30;56.30;;;;;;5076466;28;20041;-70
2022/04/02 00:18:12;;;;;;;8.25;5.95;;;22.50;56.50;;;;;;5076567;28;20049;-70
2022/04/02 00:20:38;;;;;;;9.43;6.55;;;22.30;56.40;;;;;;5076319;28;20123;-70
2022/04/02 00:25:49;;;;;;;13.15;6.45;;;22.50;56.40;;;;;;5076233;28;20155;-70
2022/04/02 00:28:16;;;;;;;12.23;6.75;;;22.30;56.30;;;;;;5076506;28;20037;-70
2022/04/02 00:30:43;;;;;;;10.80;5.15;;;22.40;56.30;;;;;;5076439;28;20100;-70
2022/04/02 00:33:10;;;;;;;9.98;5.72;;;22.40;56.30;;;;;;5076331;28;20064;-70
2022/04/02 00:35:37;;;;;;;13.57;5.93;;;22.30;56.30;;;;;;5076223;28;20095;-70
2022/04/02 00:38:04;;;;;;;11.68;6.15;;;22.30;56.40;;;;;;5075647;28;20056;-70
2022/04/02 00:40:30;;;;;;;8.60;6.55;;;22.40;56.50;;;;;;5076166;28;20079;-70
2022/04/02 00:42:56;;;;;;;11.48;6.13;;;22.40;56.60;;;;;;5075717;28;20060;-70
2022/04/02 00:45:23;;;;;;;14.23;6.40;;;22.30;56.60;;;;;;5076150;28;20037;-70
2022/04/02 00:47:49;;;;;;;12.73;6.65;;;22.40;56.60;;;;;;5076193;28;20075;-70
2022/04/02 00:50:16;;;;;;;14.20;6.50;;;22.30;56.60;;;;;;5075556;28;20032;-70
2022/04/02 00:52:44;;;;;;;13.30;6.57;;;22.40;56.60;;;;;;5076230;28;20037;-70
2022/04/02 00:55:11;;;;;;;12.80;6.07;;;22.30;56.60;;;;;;5075154;28;20053;-70
2022/04/02 00:57:38;;;;;;;11.90;5.65;;;22.40;56.60;;;;;;5075695;28;20041;-70
2022/04/02 01:00:05;;;;;;;14.77;6.10;;;22.40;56.70;;;;;;5075461;28;20041;-70
2022/04/02 01:02:31;;;;;;;11.48;5.32;;;22.30;56.60;;;;;;5075937;28;20045;-70
2022/04/02 01:04:57;;;;;;;10.88;5.00;;;22.40;56.60;;;;;;5075946;28;20040;-70
2022/04/02 01:07:27;;;;;;;14.85;4.72;;;22.40;56.50;;;;;;5079017;28;20060;-70
2022/04/02 01:09:56;;;;;;;8.50;5.03;;;22.40;56.50;;;;;;5079157;28;20041;-70
2022/04/02 01:12:26;;;;;;;13.50;5.40;;;22.30;56.50;;;;;;5079112;28;20044;-70
2022/04/02 01:14:52;;;;;;;15.30;4.55;;;22.20;56.40;;;;;;5078847;28;20037;-70
2022/04/02 01:17:25;;;;;;;10.05;4.18;;;22.40;56.50;;;;;;5078990;28;20041;-70
2022/04/02 01:19:53;;;;;;;14.25;5.20;;;22.40;56.50;;;;;;5078962;28;20097;-70
2022/04/02 01:22:26;;;;;;;10.90;5.20;;;22.30;56.50;;;;;;5078883;28;20037;-70
2022/04/02 01:24:54;;;;;;;15.02;5.68;;;22.40;56.50;;;;;;5078752;28;20032;-70
2022/04/02 01:27:23;;;;;;;11.63;5.40;;;22.30;56.50;;;;;;5079017;28;20041;-70
2022/04/02 01:29:57;;;;;;;13.40;5.53;;;22.30;56.70;;;;;;5078733;28;20033;-70
2022/04/02 01:32:23;;;;;;;13.80;4.80;;;22.30;56.70;;;;;;5078646;28;20033;-70
2022/04/02 01:35:00;;;;;;;14.90;5.55;;;22.40;56.70;;;;;;5078518;28;20110;-70
2022/04/02 01:37:26;;;;;;;10.60;5.88;;;22.40;56.70;;;;;;5079099;28;20104;-70
2022/04/02 01:39:58;;;;;;;11.05;4.65;;;22.30;56.60;;;;;;5078588;28;20045;-70
2022/04/02 01:42:32;;;;;;;13.23;4.80;;;22.30;56.60;;;;;;5078547;28;20033;-70
2022/04/02 01:45:04;;;;;;;9.10;4.97;;;22.30;56.60;;;;;;5078454;28;20037;-70
2022/04/02 01:47:53;;;;;;;16.80;5.15;;;22.30;56.60;;;;;;5078912;28;20033;-70
2022/04/02 01:50:21;;;;;;;12.23;4.80;;;22.30;56.70;;;;;;5078974;28;20036;-70
2022/04/02 01:52:50;;;;;;;7.50;4.25;;;22.20;56.50;;;;;;5078252;28;20074;-69
2022/04/02 01:55:19;;;;;;;10.32;4.22;;;22.20;56.60;;;;;;5078154;28;20033;-70
2022/04/02 01:57:52;;;;;;;11.43;4.18;;;22.20;56.80;;;;;;5078213;28;20045;-70
2022/04/02 02:00:28;;;;;;;11.10;3.97;;;22.30;57.00;;;;;;5078142;28;20208;-70
2022/04/02 02:02:54;;;;;;;14.73;4.45;;;22.10;56.90;;;;;;5078890;28;20048;-70
2022/04/02 02:05:21;;;;;;;12.10;4.25;;;22.30;57.00;;;;;;5078592;28;20033;-70
2022/04/02 02:07:49;;;;;;;11.55;4.82;;;22.20;56.80;;;;;;5078196;28;20092;-70
2022/04/02 02:10:18;;;;;;;9.98;4.50;;;22.30;56.90;;;;;;5078138;28;20090;-69
2022/04/02 02:13:01;;;;;;;14.27;4.28;;;22.30;57.00;;;;;;5077947;28;20100;-70
2022/04/02 02:15:47;;;;;;;17.98;4.15;;;22.40;57.00;;;;;;5077904;28;20075;-70
2022/04/02 02:18:13;;;;;;;14.48;4.63;;;22.20;56.80;;;;;;5076416;28;20045;-70
2022/04/02 02:20:43;;;;;;;18.25;3.97;;;22.30;56.90;;;;;;5078459;28;20060;-70
2022/04/02 02:23:10;;;;;;;16.65;4.93;;;22.40;56.80;;;;;;5077927;28;20047;-70
2022/04/02 02:25:36;;;;;;;6.88;3.40;;;22.40;56.80;;;;;;5078144;28;20067;-70
2022/04/02 02:28:04;;;;;;;11.68;4.70;;;22.30;56.80;;;;;;5077738;28;20108;-70
2022/04/02 02:30:31;;;;;;;5.45;3.47;;;22.40;56.80;;;;;;5077719;28;20037;-70
2022/04/02 02:35:49;;;;;;;16.08;4.10;;;22.10;56.80;;;;;;5077411;28;20041;-69
2022/04/02 02:38:21;;;;;;;10.70;4.03;;;22.20;56.80;;;;;;5077535;28;20080;-70
2022/04/02 02:40:56;;;;;;;8.60;3.92;;;22.20;56.70;;;;;;5077260;28;20049;-70
2022/04/02 02:43:29;;;;;;;12.70;4.65;;;22.20;56.80;;;;;;5077492;28;20052;-70
2022/04/02 02:46:06;;;;;;;8.52;4.00;;;22.10;57.00;;;;;;5077040;28;20041;-71
2022/04/02 02:48:34;;;;;;;7.85;3.85;;;22.20;57.10;;;;;;5078075;28;20037;-70
2022/04/02 02:51:00;;;;;;;8.80;3.67;;;22.20;57.10;;;;;;5077339;28;20051;-70
2022/04/02 02:53:27;;;;;;;13.27;4.47;;;22.20;57.00;;;;;;5060441;28;20037;-70
2022/04/02 02:55:53;;;;;;;9.55;3.67;;;22.20;56.90;;;;;;5076997;28;20040;-70
2022/04/02 02:58:20;;;;;;;13.75;4.38;;;22.20;56.80;;;;;;5076999;28;20056;-70
2022/04/02 03:00:46;;;;;;;9.80;4.22;;;22.20;56.80;;;;;;5076919;28;20128;-70
2022/04/02 03:03:19;;;;;;;13.15;3.65;;;22.30;57.00;;;;;;5077219;28;20096;-70
2022/04/02 03:05:50;;;;;;;10.45;3.80;;;22.20;56.80;;;;;;5076818;28;20067;-70
2022/04/02 03:08:18;;;;;;;10.40;3.72;;;22.20;56.90;;;;;;5076720;28;20043;-70
2022/04/02 03:10:55;;;;;;;13.85;4.68;;;22.10;56.90;;;;;;5077110;28;20047;-70
2022/04/02 03:13:25;;;;;;;13.32;3.75;;;22.20;57.20;;;;;;5076960;28;20092;-70
2022/04/02 03:16:02;;;;;;;7.82;3.42;;;22.10;57.20;;;;;;5076378;28;20104;-70
2022/04/02 03:18:30;;;;;;;13.60;4.50;;;22.20;57.30;;;;;;5076899;28;20040;-70
2022/04/02 03:20:58;;;;;;;14.85;3.75;;;22.20;57.20;;;;;;5076537;28;20071;-70
2022/04/02 03:23:27;;;;;;;14.70;3.65;;;22.10;57.20;;;;;;5076509;28;20043;-70
2022/04/02 03:25:54;;;;;;;9.88;3.78;;;22.20;57.20;;;;;;5076449;28;20037;-70
2022/04/02 03:28:21;;;;;;;11.20;4.05;;;22.10;57.20;;;;;;5076868;28;20047;-70
2022/04/02 03:30:47;;;;;;;11.40;3.25;;;22.20;57.20;;;;;;5077094;28;20041;-71
2022/04/02 03:33:14;;;;;;;9.02;3.13;;;22.30;57.30;;;;;;5076638;28;20045;-71
2022/04/02 03:35:43;;;;;;;8.70;2.72;;;22.50;56.80;;;;;;5076122;28;20040;-70
2022/04/02 03:38:09;;;;;;;2.75;1.88;;;22.50;56.40;;;;;;5059701;28;20067;-70
2022/04/02 03:40:37;;;;;;;4.40;1.70;;;22.60;56.20;;;;;;5076303;28;20105;-70
2022/04/02 03:43:04;;;;;;;9.90;3.97;;;22.60;56.00;;;;;;5076232;28;20033;-70
2022/04/02 03:45:35;;;;;;;9.40;3.83;;;22.60;55.90;;;;;;5076132;28;20047;-70
2022/04/02 03:48:02;;;;;;;9.25;4.28;;;22.60;55.80;;;;;;5076969;28;20029;-70
2022/04/02 03:50:34;;;;;;;6.70;3.42;;;22.50;55.80;;;;;;5076103;28;20048;-74
2022/04/02 03:53:00;;;;;;;9.07;3.33;;;22.50;56.20;;;;;;5076901;28;20062;-75
2022/04/02 03:55:35;;;;;;;6.72;3.05;;;22.70;59.00;;;;;;5075999;28;20045;-76
2022/04/02 03:58:09;;;;;;;10.18;3.50;;;22.90;60.00;;;;;;5060521;28;20040;-77
2022/04/02 04:00:36;;;;;;;8.10;3.42;;;23.10;61.80;;;;;;5076423;28;20052;-77
2022/04/02 04:03:09;;;;;;;;;;;23.20;62.50;;;;;;5075798;28;20040;-78
2022/04/02 04:05:40;;;;;;;8.35;4.50;;;23.20;57.80;;;;;;5075221;28;19990;-72
2022/04/02 04:08:08;;;;;;;13.70;4.13;;;23.20;56.20;;;;;;5074974;28;20055;-74
2022/04/02 04:10:35;;;;;;;11.77;4.88;;;23.10;55.90;;;;;;5066135;28;20049;-72
2022/04/02 04:13:02;;;;;;;11.32;4.68;;;23.00;56.10;;;;;;5055169;28;20053;-73
2022/04/02 04:15:33;;;;;;;9.77;3.85;;;23.00;56.40;;;;;;5055107;28;20041;-72
2022/04/02 04:18:03;;;;;;;31.85;12.95;;;23.00;56.80;;;;;;5055825;28;20076;-73
2022/04/02 04:20:32;;;;;;;42.65;15.32;;;23.00;57.10;;;;;;5055101;28;20039;-72
2022/04/02 04:22:58;;;;;;;52.35;20.17;;;22.80;57.30;;;;;;5071613;28;20068;-71
2022/04/02 04:25:28;;;;;;;20.85;9.60;;;22.80;57.60;;;;;;5074763;28;20501;-72
2022/04/02 04:27:55;;;;;;;9.27;5.53;;;22.80;57.70;;;;;;5075885;28;20088;-71
2022/04/02 04:30:22;;;;;;;11.98;5.50;;;22.80;57.80;;;;;;5075233;28;20049;-73
2022/04/02 04:32:49;;;;;;;13.63;5.82;;;22.80;57.70;;;;;;5074876;28;20041;-72
2022/04/02 04:35:15;;;;;;;14.95;5.55;;;22.70;57.80;;;;;;5075625;28;20108;-71
2022/04/02 04:37:41;;;;;;;12.90;6.47;;;22.70;58.10;;;;;;5075511;28;20075;-71
2022/04/02 04:40:18;;;;;;;19.25;7.22;;;22.70;58.10;;;;;;5074967;28;20049;-72
2022/04/02 04:42:46;;;;;;;18.15;6.90;;;22.70;58.10;;;;;;5078620;28;20150;-72
2022/04/02 04:45:16;;;;;;;11.90;5.10;;;22.80;58.20;;;;;;5078891;28;20036;-72
2022/04/02 04:47:46;;;;;;;7.55;3.60;;;22.70;58.50;;;;;;5079021;28;20075;-74
2022/04/02 04:50:15;;;;;;;5.82;3.05;;;22.70;55.40;;;;;;5079016;28;20040;-74
2022/04/02 04:52:41;;;;;;;8.90;2.83;;;22.70;52.00;;;;;;5078726;28;20045;-73
2022/04/02 04:55:08;;;;;;;7.65;2.95;;;22.80;52.30;;;;;;5078903;28;20049;-74
2022/04/02 04:57:35;;;;;;;18.00;3.50;;;22.80;50.80;;;;;;5078695;28;20041;-75
2022/04/02 05:00:15;;;;;;;10.70;4.20;;;22.90;52.80;;;;;;5078781;28;20041;-75
2022/04/02 05:02:44;;;;;;;8.93;3.67;;;23.00;52.80;;;;;;5078778;28;20041;-75
2022/04/02 05:05:13;;;;;;;12.77;4.45;;;23.10;57.70;;;;;;5061956;28;20060;-75
2022/04/02 05:07:45;;;;;;;14.52;3.70;;;23.20;58.60;;;;;;5078589;28;20029;-75
2022/04/02 05:10:13;;;;;;;14.00;4.78;;;23.30;57.20;;;;;;5078488;28;20047;-75
2022/04/02 05:12:39;;;;;;;20.90;7.43;;;23.50;58.90;;;;;;5078565;28;20108;-75
2022/04/02 05:15:09;;;;;;;28.88;8.38;;;23.60;61.30;;;;;;5078368;28;20041;-74
2022/04/02 05:17:37;;;;;;;18.48;6.15;;;23.70;66.10;;;;;;5078469;28;20037;-74
2022/04/02 05:20:07;;;;;;;16.42;7.05;;;23.80;56.70;;;;;;5078096;28;20045;-73
2022/04/02 05:22:35;;;;;;;15.93;5.93;;;23.90;55.40;;;;;;5078192;28;20056;-73
2022/04/02 05:25:04;;;;;;;10.20;5.13;;;23.90;50.10;;;;;;5061005;28;20052;-73
2022/04/02 05:27:30;;;;;;;13.65;4.35;;;23.90;49.30;;;;;;5078363;28;20048;-73
2022/04/02 05:29:56;;;;;;;13.10;4.47;;;24.00;51.30;;;;;;5077804;28;20036;-74
2022/04/02 05:32:22;;;;;;;8.43;4.00;;;24.10;49.60;;;;;;5078469;28;20044;-73
2022/04/02 05:34:48;;;;;;;7.97;3.70;;;23.90;48.90;;;;;;5077700;28;20041;-72
2022/04/02 05:37:14;;;;;;;5.07;3.03;;;24.10;50.20;;;;;;5078415;28;20064;-73
2022/04/02 05:39:43;;;;;;;6.28;4.47;;;24.10;51.10;;;;;;5077503;28;20040;-74
2022/04/02 05:42:12;;;;;;;8.07;4.00;;;24.00;50.10;;;;;;5077094;28;20105;-73
2022/04/02 05:44:39;;;;;;;12.50;4.22;;;24.00;49.40;;;;;;5074980;28;20108;-73
2022/04/02 05:47:06;;;;;;;12.25;5.63;;;24.10;49.80;;;;;;5058560;28;20072;-75
2022/04/02 05:49:32;;;;;;;10.32;4.55;;;24.10;50.20;;;;;;5077390;28;20036;-75
2022/04/02 05:51:59;;;;;;;6.95;4.30;;;24.10;53.30;;;;;;5076854;28;20124;-74
2022/04/02 05:54:25;;;;;;;12.77;5.15;;;24.10;54.40;;;;;;5075878;28;20060;-73
2022/04/02 05:56:52;;;;;;;9.10;5.13;;;24.10;52.50;;;;;;5077753;28;20139;-72
2022/04/02 05:59:19;;;;;;;20.23;8.98;;;24.00;52.50;;;;;;5077412;28;20032;-72
2022/04/02 06:01:46;;;;;;;13.85;5.93;;;24.00;53.40;;;;;;5077839;28;20056;-72
2022/04/02 06:04:12;;;;;;;11.73;4.68;;;23.90;55.60;;;;;;5078027;28;20039;-73
2022/04/02 06:06:39;;;;;;;8.32;3.92;;;24.00;55.90;;;;;;5077586;28;20047;-72
2022/04/02 06:09:07;;;;;;;8.75;4.72;;;24.00;54.10;;;;;;5077679;28;20029;-72
2022/04/02 06:11:33;;;;;;;15.27;5.13;;;24.00;53.90;;;;;;5077875;28;20044;-71
2022/04/02 06:13:59;;;;;;;8.68;4.28;;;23.80;54.20;;;;;;5078000;28;20052;-71
2022/04/02 06:16:26;;;;;;;7.90;4.88;;;23.80;54.60;;;;;;5077754;28;20049;-71
2022/04/02 06:18:53;;;;;;;9.30;5.03;;;23.80;54.00;;;;;;5077614;28;20037;-72
2022/04/02 06:21:20;;;;;;;11.40;4.78;;;23.80;55.00;;;;;;5076515;28;20033;-72
2022/04/02 06:23:49;;;;;;;8.13;4.07;;;23.90;54.50;;;;;;5076760;28;20033;-75
2022/04/02 06:26:15;;;;;;;7.35;4.00;;;23.60;55.30;;;;;;5077734;28;20044;-74
2022/04/02 06:28:43;;;;;;;6.25;4.07;;;23.70;56.90;;;;;;5077369;28;20101;-73
2022/04/02 06:31:10;;;;;;;5.13;3.42;;;23.70;57.90;;;;;;5077410;28;20044;-72
2022/04/02 06:33:41;;;;;;;9.45;3.72;;;23.70;58.50;;;;;;5076744;28;20073;-72
2022/04/02 06:36:09;;;;;;;7.90;4.72;;;23.80;58.70;;;;;;5076130;28;20035;-75
2022/04/02 06:38:37;;;;;;;14.77;5.68;;;23.80;59.20;;;;;;5076534;28;20082;-75
2022/04/02 06:41:03;;;;;;;15.90;7.70;;;23.80;59.70;;;;;;5077544;28;20071;-72
2022/04/02 06:43:29;;;;;;;18.95;7.93;;;23.70;53.30;;;;;;5077587;28;20044;-74
2022/04/02 06:46:02;;;;;;;;;;;23.70;59.10;;;;;;5076998;28;20057;-75
2022/04/02 06:48:28;;;;;;;15.27;8.50;;;23.70;59.10;;;;;;5059899;28;19905;-76
2022/04/02 06:50:54;;;;;;;17.05;8.70;;;23.70;58.30;;;;;;5077549;28;20037;-73
2022/04/02 06:53:30;;;;;;;15.18;8.05;;;23.70;58.30;;;;;;5076571;28;20057;-72
2022/04/02 06:55:57;;;;;;;12.63;8.60;;;23.70;56.40;;;;;;5077214;28;20033;-72
2022/04/02 06:58:28;;;;;;;21.83;10.20;;;23.70;56.00;;;;;;5076867;28;20056;-74
2022/04/02 07:00:54;;;;;;;15.65;9.82;;;23.60;56.40;;;;;;5077065;28;20045;-73
2022/04/02 07:03:21;;;;;;;15.40;10.48;;;23.70;57.20;;;;;;5076393;28;20037;-73
2022/04/02 07:05:47;;;;;;;15.70;10.00;;;23.60;57.30;;;;;;5075997;28;20097;-74
2022/04/02 07:08:13;;;;;;;15.77;9.73;;;23.60;57.40;;;;;;5076731;28;20048;-74
2022/04/02 07:10:39;;;;;;;19.98;9.45;;;23.60;57.90;;;;;;5076833;28;20104;-74
2022/04/02 07:13:05;;;;;;;19.98;12.65;;;23.60;57.50;;;;;;5075769;28;20067;-75
2022/04/02 07:15:32;;;;;;;21.38;12.02;;;23.70;57.10;;;;;;5076171;28;20075;-73
2022/04/02 07:18:07;;;;;;;18.67;11.93;;;23.80;57.20;;;;;;5076354;28;20045;-73
2022/04/02 07:20:36;;;;;;;19.45;12.65;;;23.80;57.10;;;;;;5058962;28;20067;-72
2022/04/02 07:23:04;;;;;;;17.20;11.10;;;23.80;57.00;;;;;;5076712;28;20064;-71
2022/04/02 07:25:31;;;;;;;18.08;12.10;;;23.90;56.70;;;;;;5076368;28;20070;-71
2022/04/02 07:27:58;;;;;;;20.88;11.60;;;23.80;56.70;;;;;;5075881;28;20048;-72
2022/04/02 07:30:25;;;;;;;19.45;11.85;;;23.90;56.40;;;;;;5076053;28;20053;-71
2022/04/02 07:32:54;;;;;;;15.75;11.45;;;23.70;56.70;;;;;;5075111;28;20041;-72
2022/04/02 07:35:21;;;;;;;16.27;10.98;;;23.80;56.70;;;;;;5075671;28;20068;-72
2022/04/02 07:37:57;;;;;;;12.70;8.57;;;23.80;58.60;;;;;;5075225;28;20049;-72
2022/04/02 07:40:28;;;;;;;66.45;27.23;;;23.90;58.20;;;;;;5075280;28;20069;-73
2022/04/02 07:43:36;;;;;;;18.70;14.10;;;23.90;61.90;;;;;;5058892;28;20037;-71
2022/04/02 07:46:14;;;;;;;16.15;9.13;;;23.90;56.30;;;;;;5076133;28;20075;-72
2022/04/02 07:48:41;;;;;;;;;;;23.90;52.80;;;;;;5075871;28;20037;-71
2022/04/02 07:51:12;;;;;;;15.65;7.28;;;23.90;52.30;;;;;;5076264;28;19908;-73
2022/04/02 07:53:49;;;;;;;16.00;9.98;;;23.80;50.90;;;;;;5076106;28;20048;-72
2022/04/02 07:56:37;;;;;;;13.98;9.50;;;23.90;50.40;;;;;;5075551;28;20041;-71
2022/04/02 07:59:22;;;;;;;13.98;10.77;;;23.90;49.80;;;;;;5076206;28;20071;-70
2022/04/02 08:01:49;;;;;;;14.48;9.77;;;23.90;48.10;;;;;;5075223;28;20044;-71
2022/04/02 08:04:19;;;;;;;11.50;9.50;;;23.90;47.80;;;;;;5075951;28;20374;-70
2022/04/02 08:06:48;;;;;;;13.88;8.85;;;23.80;48.10;;;;;;5069098;28;20056;-71
2022/04/02 08:09:15;;;;;;;15.95;10.65;;;23.80;49.40;;;;;;5055744;28;20067;-71
2022/04/02 08:11:42;;;;;;;29.20;17.52;;;23.80;48.10;;;;;;5064012;28;20040;-73
2022/04/02 08:14:09;;;;;;;14.23;12.70;;;23.80;49.40;;;;;;5074941;28;20067;-72
2022/04/02 08:16:42;;;;;;;6.47;4.28;;;23.90;50.10;;;;;;5074937;28;20048;-71
2022/04/02 08:19:10;;;;;;;11.25;6.18;;;23.90;50.90;;;;;;5075836;28;20064;-70
2022/04/02 08:21:39;;;;;;;12.90;7.97;;;23.90;51.10;;;;;;5075519;28;20095;-70
2022/04/02 08:24:08;;;;;;;12.68;9.98;;;24.00;48.10;;;;;;5074185;28;20057;-71
2022/04/02 08:27:21;;;;;;;11.32;9.10;;;24.10;46.80;;;;;;5037218;28;20030;-73
2022/04/02 08:29:49;;;;;;;;;;;24.40;48.50;;;;;;5055261;28;20042;-73
2022/04/02 08:33:06;;;;;;;13.38;10.02;;;24.50;43.90;;;;;;5055604;28;19909;-74
2022/04/02 08:35:52;;;;;;;15.38;11.25;;;24.40;46.70;;;;;;5037897;28;20038;-72
2022/04/02 08:38:40;;;;;;;15.27;9.23;;;24.60;51.70;;;;;;5054646;28;20072;-74
2022/04/02 08:41:41;;;;;;;24.98;12.25;;;24.80;56.00;;;;;;5054396;28;20041;-74
2022/04/02 08:44:27;;;;;;;51.15;15.25;;;24.80;54.80;;;;;;5044196;28;20044;-73
2022/04/02 08:47:24;;;;;;;19.35;12.25;;;25.10;55.50;;;;;;5054703;28;20033;-73
2022/04/02 08:50:10;;;;;;;15.70;10.25;;;25.10;50.60;;;;;;5054925;28;20061;-73
2022/04/02 08:52:56;;;;;;;14.70;12.43;;;25.00;46.40;;;;;;5054180;28;20420;-73
2022/04/02 08:55:39;;;;;;;14.32;8.95;;;25.00;44.90;;;;;;5054749;28;20045;-72
2022/04/02 08:58:14;;;;;;;9.60;7.32;;;25.00;43.30;;;;;;5055408;28;20041;-72
2022/04/02 09:00:44;;;;;;;14.95;11.35;;;25.00;44.60;;;;;;5055098;28;20041;-72
2022/04/02 09:03:45;;;;;;;12.32;7.32;;;25.10;47.10;;;;;;5055155;28;20068;-72
2022/04/02 09:06:40;;;;;;;15.15;12.32;;;25.00;42.00;;;;;;5073672;28;20059;-72
2022/04/02 09:09:28;;;;;;;9.48;3.85;;;24.90;41.30;;;;;;5025077;28;20096;-71
2022/04/02 09:12:16;;;;;;;7.22;4.70;;;25.00;47.90;;;;;;5063428;28;20036;-73
2022/04/02 09:15:12;;;;;;;3.70;1.90;;;25.00;47.40;;;;;;5054240;28;20047;-73
2022/04/02 09:18:18;;;;;;;16.80;13.52;;;25.00;47.50;;;;;;5055453;28;20041;-73
2022/04/02 09:20:57;;;;;;;19.05;12.73;;;25.00;47.70;;;;;;5055123;28;20041;-73
2022/04/02 09:23:45;;;;;;;16.73;12.43;;;25.00;49.90;;;;;;5055090;28;20105;-73
2022/04/02 09:26:39;;;;;;;19.20;14.00;;;25.10;51.60;;;;;;5054958;28;20125;-73
2022/04/02 09:29:15;;;;;;;15.55;11.38;;;25.20;52.70;;;;;;5057890;28;20061;-73
2022/04/02 09:31:53;;;;;;;18.85;10.52;;;25.50;55.10;;;;;;5058594;28;20033;-73
2022/04/02 09:34:50;;;;;;;16.20;12.93;;;25.50;56.60;;;;;;5057640;28;20111;-73
2022/04/02 09:37:44;;;;;;;20.50;13.75;;;25.50;59.30;;;;;;5058554;28;20037;-73
2022/04/02 09:40:11;;;;;;;14.68;13.18;;;25.80;66.80;;;;;;5058363;28;20067;-74
2022/04/02 09:42:41;;;;;;;13.82;11.48;;;26.20;70.50;;;;;;5057628;28;20043;-72
2022/04/02 09:45:09;;;;;;;17.38;13.50;;;26.10;62.70;;;;;;5057686;28;20056;-72
2022/04/02 09:48:04;;;;;;;16.55;12.88;;;26.10;60.30;;;;;;5058379;28;20065;-71
2022/04/02 09:50:30;;;;;;;19.08;14.27;;;25.80;58.00;;;;;;5058649;28;20045;-71
2022/04/02 09:53:12;;;;;;;18.38;13.80;;;25.90;52.00;;;;;;5057799;28;20049;-71
2022/04/02 09:55:53;;;;;;;17.67;13.02;;;25.70;51.50;;;;;;5057456;28;20093;-71
2022/04/02 09:58:57;;;;;;;17.65;13.85;;;25.50;52.00;;;;;;5057790;28;20247;-72
2022/04/02 10:01:35;;;;;;;16.05;12.98;;;25.40;52.30;;;;;;5057808;28;20091;-71
2022/04/02 10:04:29;;;;;;;15.32;12.32;;;25.30;53.60;;;;;;5058247;28;20065;-71
2022/04/02 10:06:58;;;;;;;13.77;12.38;;;25.30;52.90;;;;;;5058006;28;20029;-72
2022/04/02 10:09:33;;;;;;;12.68;9.68;;;25.30;51.30;;;;;;5071343;28;20037;-72
2022/04/02 10:12:01;;;;;;;13.60;11.40;;;25.40;51.40;;;;;;5077826;28;20059;-72
2022/04/02 10:14:33;;;;;;;16.15;7.82;;;25.40;48.00;;;;;;5078166;28;20074;-72
2022/04/02 10:17:08;;;;;;;14.75;9.23;;;25.40;45.60;;;;;;5078037;28;20049;-72
2022/04/02 10:19:38;;;;;;;11.60;8.98;;;25.50;47.30;;;;;;5078008;28;20040;-70
2022/04/02 10:22:06;;;;;;;11.55;9.63;;;25.60;42.40;;;;;;5076984;28;20080;-70
2022/04/02 10:24:40;;;;;;;13.57;9.70;;;25.40;41.10;;;;;;5077681;28;20037;-69
2022/04/02 10:27:13;;;;;;;12.88;10.20;;;25.40;41.00;;;;;;5077981;28;20100;-70
2022/04/02 10:30:01;;;;;;;12.30;9.80;;;25.30;41.50;;;;;;5076055;28;20041;-69
2022/04/02 10:32:38;;;;;;;13.63;9.88;;;25.30;39.90;;;;;;5077685;28;20037;-69
2022/04/02 10:35:11;;;;;;;13.80;11.18;;;25.30;44.70;;;;;;5076830;28;20040;-69
2022/04/02 10:37:42;;;;;;;16.52;12.25;;;25.30;52.00;;;;;;5083803;28;20082;-70
2022/04/02 10:40:11;;;;;;;15.35;13.75;;;25.30;51.90;;;;;;5096852;28;20052;-70
2022/04/02 10:42:41;;;;;;;14.40;12.40;;;25.20;50.10;;;;;;5097516;28;20028;-72
2022/04/02 10:45:12;;;;;;;12.98;10.75;;;25.20;53.50;;;;;;5097199;28;20052;-70
2022/04/02 10:47:46;;;;;;;12.43;11.10;;;25.30;53.10;;;;;;5083288;28;20044;-71
2022/04/02 10:50:15;;;;;;;15.15;11.88;;;25.10;53.70;;;;;;5076011;28;20043;-73
2022/04/02 10:52:43;;;;;;;12.13;10.77;;;25.00;54.50;;;;;;5076700;28;20066;-71
2022/04/02 10:55:12;;;;;;;11.98;9.52;;;25.30;55.20;;;;;;5076633;28;20037;-70
2022/04/02 10:57:38;;;;;;;8.85;8.05;;;25.10;54.40;;;;;;5076385;28;20065;-70
2022/04/02 11:00:10;;;;;;;8.80;7.82;;;25.10;51.70;;;;;;5076755;28;20045;-69
2022/04/02 11:02:42;;;;;;;8.10;7.30;;;25.00;52.00;;;;;;5078381;28;20032;-71
2022/04/02 11:05:14;;;;;;;;;;;25.10;52.60;;;;;;5077207;28;20069;-70
2022/04/02 11:07:42;;;;;;;8.88;7.97;;;25.10;51.70;;;;;;5076541;28;19912;-70
2022/04/02 11:10:16;;;;;;;9.52;8.50;;;25.00;52.40;;;;;;5076358;28;20082;-70
2022/04/02 11:12:44;;;;;;;8.95;8.07;;;25.00;51.40;;;;;;5076182;28;20036;-70
2022/04/02 11:15:14;;;;;;;9.45;8.35;;;24.80;49.10;;;;;;5076138;28;20112;-70
2022/04/02 11:17:46;;;;;;;10.07;9.07;;;24.90;52.30;;;;;;5075930;28;20040;-69
2022/04/02 11:20:16;;;;;;;10.55;8.35;;;24.80;49.30;;;;;;5075925;28;20045;-69
2022/04/02 11:23:03;;;;;;;8.95;7.88;;;24.80;52.20;;;;;;5075488;28;20052;-70
2022/04/02 11:25:31;;;;;;;9.07;7.97;;;24.80;52.20;;;;;;5075281;28;20048;-71
2022/04/02 11:28:18;;;;;;;9.50;8.15;;;24.80;51.60;;;;;;5076248;28;20040;-69
2022/04/02 11:30:50;;;;;;;8.98;8.07;;;24.70;52.00;;;;;;5076300;28;20049;-69
2022/04/02 11:33:22;;;;;;;7.90;6.90;;;24.80;51.70;;;;;;5076450;28;20033;-70
2022/04/02 11:35:55;;;;;;;9.68;8.63;;;24.60;53.60;;;;;;5076316;28;20067;-69
2022/04/02 11:38:22;;;;;;;11.65;9.43;;;24.60;50.70;;;;;;5075560;28;20075;-71
2022/04/02 11:41:12;;;;;;;8.77;7.38;;;24.50;52.30;;;;;;5075674;28;20633;-70
2022/04/02 11:43:39;;;;;;;9.27;7.13;;;24.60;55.00;;;;;;5075949;28;20024;-70
2022/04/02 11:46:08;;;;;;;7.30;6.60;;;24.50;53.70;;;;;;5075393;28;20036;-70
2022/04/02 11:48:38;;;;;;;6.30;5.70;;;24.60;52.90;;;;;;5076283;28;20059;-68
2022/04/02 11:51:17;;;;;;;7.97;5.95;;;24.60;54.40;;;;;;5076398;28;20049;-70
2022/04/02 11:53:44;;;;;;;6.90;6.07;;;24.60;51.30;;;;;;5076022;28;20041;-70
2022/04/02 11:56:25;;;;;;;6.80;5.75;;;24.60;50.20;;;;;;5076252;28;20104;-70
2022/04/02 11:58:51;;;;;;;6.95;6.10;;;24.50;53.70;;;;;;5076117;28;20113;-68
2022/04/02 12:01:23;;;;;;;7.82;5.85;;;24.60;51.80;;;;;;5075605;28;20147;-69
2022/04/02 12:04:14;;;;;;;7.90;5.60;;;24.60;53.40;;;;;;5075592;28;20040;-70
2022/04/02 12:06:46;;;;;;;7.25;6.25;;;24.60;52.70;;;;;;5075731;28;20044;-70
2022/04/02 12:09:20;;;;;;;7.82;6.00;;;24.50;49.50;;;;;;5075571;28;20056;-70
2022/04/02 12:12:00;;;;;;;7.25;6.32;;;24.50;51.60;;;;;;5074927;28;20047;-70
2022/04/02 12:14:28;;;;;;;7.15;6.35;;;24.60;52.00;;;;;;5074940;28;20041;-70
2022/04/02 12:17:05;;;;;;;7.43;6.50;;;24.50;51.40;;;;;;5075145;28;20065;-70
2022/04/02 12:19:46;;;;;;;7.93;6.13;;;24.50;53.60;;;;;;5075387;28;20040;-70
2022/04/02 12:22:27;;;;;;;8.80;5.60;;;24.60;53.70;;;;;;5074799;28;20083;-70
2022/04/02 12:25:00;;;;;;;8.60;6.22;;;24.60;52.60;;;;;;5075390;28;20041;-70
2022/04/02 12:27:32;;;;;;;5.85;4.60;;;24.60;53.60;;;;;;5075716;28;20063;-70
2022/04/02 12:30:02;;;;;;;6.55;5.63;;;24.60;52.80;;;;;;5055646;28;20046;-70
2022/04/02 12:32:32;;;;;;;9.05;7.10;;;24.60;53.40;;;;;;5055894;28;20084;-70
2022/04/02 12:35:03;;;;;;;7.70;5.68;;;24.50;52.90;;;;;;5055611;28;20064;-70
2022/04/02 12:37:57;;;;;;;9.15;6.78;;;24.50;50.90;;;;;;5055447;28;20093;-70
2022/04/02 12:40:26;;;;;;;8.10;6.80;;;24.50;53.10;;;;;;5055693;28;20049;-70
2022/04/02 12:42:55;;;;;;;7.47;6.03;;;24.50;53.40;;;;;;5055793;28;20030;-70
2022/04/02 12:45:23;;;;;;;6.80;6.05;;;24.60;53.30;;;;;;5055835;28;20057;-70
2022/04/02 12:48:20;;;;;;;7.18;6.22;;;24.40;53.40;;;;;;5055914;28;20039;-70
2022/04/02 12:50:52;;;;;;;8.55;5.60;;;24.50;53.50;;;;;;5055060;28;20048;-69
2022/04/02 12:53:29;;;;;;;7.10;5.72;;;24.50;53.50;;;;;;5055702;28;20108;-70
2022/04/02 12:55:57;;;;;;;7.93;6.20;;;24.50;53.60;;;;;;5055649;28;20061;-70
2022/04/02 12:58:39;;;;;;;8.52;6.38;;;24.50;53.60;;;;;;5055540;28;20037;-70
2022/04/02 13:01:14;;;;;;;8.52;7.35;;;24.50;53.60;;;;;;5055608;28;20068;-70
2022/04/02 13:03:59;;;;;;;8.00;6.47;;;24.60;53.60;;;;;;5058557;28;20041;-69
2022/04/02 13:06:28;;;;;;;7.28;6.43;;;24.50;53.70;;;;;;5058422;28;20056;-70
2022/04/02 13:08:54;;;;;;;6.85;5.45;;;24.50;53.70;;;;;;5058466;28;20041;-69
2022/04/02 13:11:57;;;;;;;9.38;5.97;;;24.50;53.70;;;;;;5057949;28;20044;-69